Time;durP1;ratioP1;P1;durP2;ratioP2;P2;SDS_P1;SDS_P2;PMS_P1;PMS_P2;Temp;Humidity;BMP_temperature;BMP_pressure;BME280_temperature;BME280_humidity;BME280_pressure;Samples;Min_cycle;Max_cycle;Signal;HPM_P1;HPM_P2
2023/08/29 00:01:36;;;;;;;4.80;4.27;;;11.90;99.90;;;;;;483169;246;28434;-75
2023/08/29 00:03:38;;;;;;;5.07;4.60;;;11.90;99.90;;;;;;483156;246;28456;-76
2023/08/29 00:05:39;;;;;;;4.97;4.40;;;11.90;99.90;;;;;;483153;246;28304;-74
2023/08/29 00:07:40;;;;;;;5.13;4.47;;;11.90;99.90;;;;;;483137;246;28539;-74
2023/08/29 00:09:42;;;;;;;4.70;4.30;;;11.90;99.90;;;;;;483142;246;28893;-74
2023/08/29 00:11:43;;;;;;;6.60;4.50;;;11.90;99.90;;;;;;483100;246;28754;-73
2023/08/29 00:13:44;;;;;;;4.43;4.03;;;11.90;99.90;;;;;;483115;246;28658;-73
2023/08/29 00:15:45;;;;;;;4.30;3.93;;;12.00;99.90;;;;;;483105;246;28619;-73
2023/08/29 00:17:47;;;;;;;4.67;4.13;;;12.00;99.90;;;;;;483115;246;28061;-73
2023/08/29 00:19:48;;;;;;;7.53;4.47;;;11.90;99.90;;;;;;483133;246;28062;-73
2023/08/29 00:21:51;;;;;;;4.63;4.23;;;11.90;99.90;;;;;;483145;246;28750;-73
2023/08/29 00:23:51;;;;;;;4.10;3.70;;;11.90;99.90;;;;;;483060;246;28184;-73
2023/08/29 00:25:53;;;;;;;3.70;3.43;;;11.90;99.90;;;;;;483096;246;28305;-75
2023/08/29 00:27:54;;;;;;;5.40;3.97;;;11.80;99.90;;;;;;483111;246;28306;-73
2023/08/29 00:29:55;;;;;;;4.07;3.70;;;11.80;99.90;;;;;;483093;246;28567;-74
2023/08/29 00:31:56;;;;;;;4.27;3.87;;;11.80;99.90;;;;;;483001;246;28625;-73
2023/08/29 00:33:58;;;;;;;4.57;4.17;;;11.80;99.90;;;;;;483105;246;28791;-73
2023/08/29 00:35:59;;;;;;;4.53;4.10;;;11.70;99.90;;;;;;483101;246;28878;-73
2023/08/29 00:38:00;;;;;;;4.73;4.17;;;11.70;99.90;;;;;;483069;246;28198;-74
2023/08/29 00:40:01;;;;;;;4.97;4.47;;;11.70;99.90;;;;;;483143;246;28203;-74
2023/08/29 00:42:04;;;;;;;4.20;3.80;;;11.70;99.90;;;;;;483031;246;28218;-73
2023/08/29 00:44:05;;;;;;;5.57;4.13;;;11.60;99.90;;;;;;483148;246;28191;-74
2023/08/29 00:46:09;;;;;;;4.90;4.30;;;11.60;99.90;;;;;;483094;246;28089;-72
2023/08/29 00:48:08;;;;;;;3.60;3.30;;;11.70;99.90;;;;;;482980;246;28540;-73
2023/08/29 00:50:09;;;;;;;4.20;3.60;;;11.70;99.90;;;;;;483098;246;28728;-73
2023/08/29 00:52:10;;;;;;;4.40;3.97;;;11.70;99.90;;;;;;483067;246;28837;-73
2023/08/29 00:54:11;;;;;;;4.37;3.90;;;11.80;99.90;;;;;;483154;246;28443;-74
2023/08/29 00:56:17;;;;;;;4.40;4.00;;;11.80;99.90;;;;;;483068;246;28269;-74
2023/08/29 00:58:15;;;;;;;4.20;3.80;;;11.70;99.90;;;;;;482777;246;29020;-74
2023/08/29 01:00:16;;;;;;;4.73;4.33;;;11.80;99.90;;;;;;483141;246;28290;-73
2023/08/29 01:02:18;;;;;;;4.20;3.90;;;11.80;99.90;;;;;;483132;246;28529;-75
2023/08/29 01:04:19;;;;;;;6.57;4.20;;;11.80;99.90;;;;;;483066;246;29057;-73
2023/08/29 01:06:20;;;;;;;4.40;4.00;;;11.80;99.90;;;;;;483051;246;29037;-73
2023/08/29 01:08:21;;;;;;;4.40;4.00;;;11.90;99.90;;;;;;483089;246;28528;-74
2023/08/29 01:10:22;;;;;;;4.30;3.90;;;11.90;99.90;;;;;;483094;246;28442;-74
2023/08/29 01:12:23;;;;;;;4.20;3.80;;;11.90;99.90;;;;;;483092;246;28438;-73
2023/08/29 01:14:25;;;;;;;5.53;3.77;;;11.90;99.90;;;;;;483105;246;28426;-73
2023/08/29 01:16:26;;;;;;;3.97;3.63;;;11.90;99.90;;;;;;483097;246;28644;-73
2023/08/29 01:18:28;;;;;;;3.80;3.53;;;11.80;99.90;;;;;;483090;246;28573;-74
2023/08/29 01:20:28;;;;;;;4.00;3.70;;;11.80;99.90;;;;;;483067;246;28891;-74
2023/08/29 01:22:31;;;;;;;4.53;4.13;;;;;;;;;;483102;246;28054;-73
2023/08/29 01:24:32;;;;;;;6.13;4.10;;;11.70;99.90;;;;;;483092;246;27185;-73
2023/08/29 01:26:33;;;;;;;4.27;3.87;;;11.70;99.90;;;;;;483098;246;28276;-73
2023/08/29 01:28:35;;;;;;;5.00;4.20;;;11.70;99.90;;;;;;483091;246;28313;-74
2023/08/29 01:30:36;;;;;;;5.13;4.40;;;11.60;99.90;;;;;;483096;246;28630;-73
2023/08/29 01:32:37;;;;;;;4.30;3.97;;;11.60;99.90;;;;;;483123;246;28888;-75
2023/08/29 01:34:38;;;;;;;5.00;4.50;;;11.70;99.90;;;;;;483142;246;28786;-73
2023/08/29 01:36:40;;;;;;;5.10;4.23;;;11.60;99.90;;;;;;483150;246;28311;-73
2023/08/29 01:38:41;;;;;;;5.03;4.20;;;11.60;99.90;;;;;;483149;246;28341;-74
2023/08/29 01:40:42;;;;;;;4.27;3.87;;;11.60;99.90;;;;;;483151;246;28278;-74
2023/08/29 01:42:44;;;;;;;4.60;4.10;;;11.60;99.90;;;;;;483143;246;28413;-73
2023/08/29 01:44:45;;;;;;;5.67;4.63;;;11.60;99.90;;;;;;483103;246;28539;-73
2023/08/29 01:46:46;;;;;;;5.07;4.10;;;11.60;99.90;;;;;;483104;246;28549;-73
2023/08/29 01:48:47;;;;;;;4.80;4.20;;;11.50;99.90;;;;;;483087;246;28770;-74
2023/08/29 01:50:48;;;;;;;4.77;4.27;;;11.50;99.90;;;;;;483096;246;28401;-73
2023/08/29 01:52:50;;;;;;;8.40;4.50;;;11.50;99.90;;;;;;483093;246;28085;-73
2023/08/29 01:54:51;;;;;;;5.63;5.10;;;11.50;99.90;;;;;;483136;246;28230;-73
2023/08/29 01:56:52;;;;;;;4.67;4.27;;;11.50;99.90;;;;;;483142;246;28539;-74
2023/08/29 01:58:53;;;;;;;4.23;3.87;;;11.50;99.90;;;;;;483138;246;28538;-73
2023/08/29 02:00:55;;;;;;;4.40;4.00;;;11.50;99.90;;;;;;483100;246;28656;-73
2023/08/29 02:02:56;;;;;;;4.10;3.70;;;11.50;99.90;;;;;;483086;246;28303;-73
2023/08/29 02:04:57;;;;;;;5.37;4.87;;;11.60;99.90;;;;;;483159;246;28310;-74
2023/08/29 02:06:59;;;;;;;4.57;4.07;;;11.60;99.90;;;;;;483098;246;28061;-74
2023/08/29 02:09:00;;;;;;;4.00;3.60;;;11.60;99.90;;;;;;483091;246;28098;-74
2023/08/29 02:11:01;;;;;;;5.47;4.03;;;11.50;99.90;;;;;;483089;246;28454;-73
2023/08/29 02:13:02;;;;;;;4.33;3.93;;;11.50;99.90;;;;;;483126;246;28075;-73
2023/08/29 02:15:05;;;;;;;3.90;3.60;;;11.60;99.90;;;;;;483087;246;28684;-73
2023/08/29 02:17:05;;;;;;;4.90;4.40;;;11.60;99.90;;;;;;483054;246;28503;-74
2023/08/29 02:19:06;;;;;;;4.67;4.27;;;11.60;99.90;;;;;;483053;246;28240;-75
2023/08/29 02:21:07;;;;;;;4.80;4.40;;;11.70;99.90;;;;;;483152;246;28117;-74
2023/08/29 02:23:09;;;;;;;4.63;4.23;;;11.70;99.90;;;;;;483134;246;28616;-76
2023/08/29 02:25:10;;;;;;;4.23;3.93;;;11.70;99.90;;;;;;483150;246;28693;-75
2023/08/29 02:27:11;;;;;;;3.90;3.60;;;11.70;99.90;;;;;;483122;246;28790;-74
2023/08/29 02:29:12;;;;;;;4.60;4.20;;;11.70;99.90;;;;;;483112;246;28441;-73
2023/08/29 02:31:14;;;;;;;4.77;4.30;;;11.70;99.90;;;;;;483122;246;28438;-75
2023/08/29 02:33:15;;;;;;;4.30;3.90;;;11.70;99.90;;;;;;483123;246;28751;-75
2023/08/29 02:35:16;;;;;;;5.00;4.10;;;11.70;99.90;;;;;;483133;246;28658;-73
2023/08/29 02:37:18;;;;;;;4.27;3.87;;;11.60;99.90;;;;;;483140;246;28213;-73
2023/08/29 02:39:19;;;;;;;4.43;4.07;;;11.60;99.90;;;;;;483119;246;28524;-73
2023/08/29 02:41:20;;;;;;;5.20;4.07;;;11.60;99.90;;;;;;483105;246;28654;-73
2023/08/29 02:43:21;;;;;;;4.33;3.60;;;11.50;99.90;;;;;;483095;246;28580;-73
2023/08/29 02:45:23;;;;;;;3.73;3.43;;;11.50;99.90;;;;;;483091;246;28424;-73
2023/08/29 02:47:24;;;;;;;5.20;4.50;;;11.50;99.90;;;;;;483084;246;28387;-73
2023/08/29 02:49:25;;;;;;;4.40;4.07;;;11.60;99.90;;;;;;483087;246;28787;-73
2023/08/29 02:51:26;;;;;;;4.73;4.40;;;11.60;99.90;;;;;;483066;246;28809;-74
2023/08/29 02:53:29;;;;;;;4.87;4.40;;;11.60;99.90;;;;;;483074;246;28668;-73
2023/08/29 02:55:30;;;;;;;4.77;4.20;;;11.60;99.90;;;;;;483077;246;28451;-73
2023/08/29 02:57:31;;;;;;;5.10;4.60;;;11.60;99.90;;;;;;483085;246;28565;-73
2023/08/29 02:59:32;;;;;;;4.63;4.23;;;11.60;99.90;;;;;;483083;246;28182;-73
2023/08/29 03:01:35;;;;;;;4.60;4.20;;;;;;;;;;483078;246;29087;-73
2023/08/29 03:03:36;;;;;;;4.70;4.10;;;11.60;99.90;;;;;;483093;246;27611;-73
2023/08/29 03:05:38;;;;;;;4.57;4.20;;;11.60;99.90;;;;;;483086;246;28996;-73
2023/08/29 03:07:39;;;;;;;4.50;4.13;;;11.70;99.90;;;;;;483083;246;28454;-74
2023/08/29 03:09:40;;;;;;;4.50;4.10;;;11.60;99.90;;;;;;483085;246;28894;-73
2023/08/29 03:11:41;;;;;;;5.20;4.23;;;11.50;99.90;;;;;;483145;246;28696;-74
2023/08/29 03:13:43;;;;;;;4.00;3.63;;;11.50;99.90;;;;;;483119;246;28502;-74
2023/08/29 03:15:44;;;;;;;4.10;3.73;;;11.50;99.90;;;;;;483085;246;28445;-73
2023/08/29 03:17:45;;;;;;;4.37;3.73;;;11.50;99.90;;;;;;483111;246;28070;-73
2023/08/29 03:19:47;;;;;;;7.30;4.20;;;11.50;99.90;;;;;;483140;246;28072;-75
2023/08/29 03:21:49;;;;;;;4.57;4.17;;;;;;;;;;483108;246;28522;-75
2023/08/29 03:23:50;;;;;;;4.87;4.47;;;11.60;99.90;;;;;;483121;246;27219;-74
2023/08/29 03:25:51;;;;;;;5.53;4.40;;;11.70;99.90;;;;;;483128;246;28249;-73
2023/08/29 03:27:53;;;;;;;4.33;4.03;;;11.70;99.90;;;;;;483129;246;28348;-73
2023/08/29 03:29:54;;;;;;;4.93;4.53;;;11.80;99.90;;;;;;483065;246;28423;-73
2023/08/29 03:31:55;;;;;;;5.10;4.60;;;11.80;99.90;;;;;;483082;246;27981;-73
2023/08/29 03:33:57;;;;;;;7.20;4.87;;;11.80;99.90;;;;;;483089;246;28135;-73
2023/08/29 03:35:59;;;;;;;9.80;4.67;;;11.80;99.90;;;;;;483097;246;28236;-73
2023/08/29 03:38:00;;;;;;;5.27;4.77;;;11.80;99.90;;;;;;483084;246;28501;-74
2023/08/29 03:40:02;;;;;;;4.67;4.27;;;11.80;99.90;;;;;;483140;246;28084;-73
2023/08/29 03:42:03;;;;;;;5.97;5.10;;;11.80;99.90;;;;;;483012;246;28372;-73
2023/08/29 03:44:04;;;;;;;5.07;4.60;;;11.80;99.90;;;;;;483079;246;28538;-72
2023/08/29 03:46:05;;;;;;;5.53;5.03;;;11.80;99.90;;;;;;483072;246;28317;-75
2023/08/29 03:48:07;;;;;;;6.30;5.70;;;11.80;99.90;;;;;;483078;246;28313;-74
2023/08/29 03:50:08;;;;;;;7.33;5.53;;;11.90;99.90;;;;;;483124;246;28348;-73
2023/08/29 03:52:10;;;;;;;10.40;6.53;;;11.90;99.90;;;;;;483134;246;28775;-73
2023/08/29 03:54:11;;;;;;;5.70;5.20;;;11.90;99.90;;;;;;483113;246;28540;-73
2023/08/29 03:56:13;;;;;;;5.73;5.30;;;11.90;99.90;;;;;;483118;246;28243;-74
2023/08/29 03:58:14;;;;;;;9.90;5.50;;;11.90;99.90;;;;;;483124;246;28108;-74
2023/08/29 04:00:15;;;;;;;6.87;6.17;;;11.80;99.90;;;;;;483145;246;28506;-73
2023/08/29 04:02:17;;;;;;;6.27;5.47;;;11.80;99.90;;;;;;483133;246;28441;-73
2023/08/29 04:04:18;;;;;;;7.27;6.13;;;11.80;99.90;;;;;;483116;246;28550;-74
2023/08/29 04:06:19;;;;;;;6.17;5.07;;;11.80;99.90;;;;;;483127;246;28101;-73
2023/08/29 04:08:20;;;;;;;5.20;3.87;;;11.80;99.90;;;;;;483124;246;28436;-74
2023/08/29 04:10:22;;;;;;;10.07;4.03;;;11.70;99.90;;;;;;483123;246;28208;-74
2023/08/29 04:12:23;;;;;;;4.13;3.73;;;11.70;99.90;;;;;;483111;246;28219;-74
2023/08/29 04:14:25;;;;;;;4.43;4.03;;;11.60;99.90;;;;;;483071;246;28625;-73
2023/08/29 04:16:26;;;;;;;4.63;4.23;;;11.50;99.90;;;;;;483074;246;28310;-73
2023/08/29 04:18:28;;;;;;;4.90;4.27;;;11.50;99.90;;;;;;483089;246;28898;-73
2023/08/29 04:20:29;;;;;;;4.23;3.93;;;11.60;99.90;;;;;;483099;246;28154;-74
2023/08/29 04:22:30;;;;;;;5.40;4.90;;;11.60;99.90;;;;;;483118;246;28215;-73
2023/08/29 04:24:32;;;;;;;7.43;4.70;;;11.60;99.90;;;;;;483162;246;28090;-73
2023/08/29 04:26:33;;;;;;;6.57;5.97;;;11.60;99.90;;;;;;483091;246;28366;-73
2023/08/29 04:28:34;;;;;;;5.50;5.07;;;11.60;99.90;;;;;;483102;246;28790;-73
2023/08/29 04:30:35;;;;;;;5.77;5.27;;;11.60;99.90;;;;;;483114;246;28177;-75
2023/08/29 04:32:37;;;;;;;5.80;5.10;;;11.70;99.90;;;;;;483085;246;28074;-75
2023/08/29 04:34:39;;;;;;;7.70;6.53;;;11.70;99.90;;;;;;483083;246;28119;-79
2023/08/29 04:36:39;;;;;;;5.70;5.27;;;11.70;99.90;;;;;;483079;246;28085;-74
2023/08/29 04:38:42;;;;;;;6.10;5.60;;;11.70;99.90;;;;;;483137;246;28819;-75
2023/08/29 04:40:42;;;;;;;6.40;5.83;;;11.70;99.90;;;;;;483056;246;28813;-75
2023/08/29 04:42:43;;;;;;;6.97;6.33;;;11.70;99.90;;;;;;483112;246;28516;-73
2023/08/29 04:44:44;;;;;;;6.90;6.23;;;11.70;99.90;;;;;;483049;246;28441;-76
2023/08/29 04:46:46;;;;;;;7.57;6.87;;;11.70;99.90;;;;;;483120;246;28193;-73
2023/08/29 04:48:47;;;;;;;6.93;6.33;;;11.70;99.90;;;;;;483147;246;28789;-73
2023/08/29 04:50:48;;;;;;;7.80;7.00;;;11.70;99.90;;;;;;483156;246;28437;-73
2023/08/29 04:52:53;;;;;;;6.20;5.53;;;11.70;99.90;;;;;;483141;246;28421;-73
2023/08/29 04:54:51;;;;;;;6.50;5.90;;;11.70;99.90;;;;;;482920;246;28231;-74
2023/08/29 04:56:52;;;;;;;7.53;6.83;;;11.70;99.90;;;;;;483147;246;28300;-73
2023/08/29 04:58:53;;;;;;;7.30;6.60;;;11.70;99.90;;;;;;483098;246;28528;-73
2023/08/29 05:00:55;;;;;;;6.57;6.00;;;11.70;99.90;;;;;;483091;246;29009;-72
2023/08/29 05:02:56;;;;;;;6.93;5.70;;;11.70;99.90;;;;;;483096;246;28983;-74
2023/08/29 05:04:57;;;;;;;7.13;6.40;;;11.70;99.90;;;;;;483077;246;28214;-74
2023/08/29 05:06:58;;;;;;;7.53;6.23;;;11.70;99.90;;;;;;483092;246;28547;-74
2023/08/29 05:09:00;;;;;;;6.73;6.03;;;11.80;99.90;;;;;;483148;246;28182;-74
2023/08/29 05:11:01;;;;;;;7.23;6.23;;;11.80;99.90;;;;;;483128;246;28186;-73
2023/08/29 05:13:02;;;;;;;5.90;5.20;;;11.80;99.90;;;;;;483117;246;28439;-73
2023/08/29 05:15:04;;;;;;;5.10;4.70;;;11.80;99.90;;;;;;483090;246;28495;-73
2023/08/29 05:17:05;;;;;;;4.13;3.83;;;11.80;99.90;;;;;;483158;246;28744;-73
2023/08/29 05:19:07;;;;;;;5.17;4.67;;;11.80;99.90;;;;;;483157;246;28432;-75
2023/08/29 05:21:07;;;;;;;6.00;4.80;;;11.70;99.90;;;;;;482999;246;29017;-72
2023/08/29 05:23:08;;;;;;;5.37;4.53;;;11.70;99.90;;;;;;483093;246;28509;-73
2023/08/29 05:25:10;;;;;;;6.30;5.40;;;11.70;99.90;;;;;;483090;246;28228;-73
2023/08/29 05:27:11;;;;;;;4.83;4.43;;;11.70;99.90;;;;;;483091;246;28630;-73
2023/08/29 05:29:12;;;;;;;7.10;4.80;;;11.70;99.90;;;;;;483103;246;28894;-73
2023/08/29 05:31:14;;;;;;;4.80;4.40;;;11.70;99.90;;;;;;483146;246;28542;-73
2023/08/29 05:33:15;;;;;;;5.00;4.60;;;11.80;99.90;;;;;;483094;246;28432;-73
2023/08/29 05:35:16;;;;;;;7.37;4.80;;;11.80;99.90;;;;;;483102;246;28443;-72
2023/08/29 05:37:17;;;;;;;7.23;5.20;;;11.90;99.90;;;;;;483091;246;28351;-77
2023/08/29 05:39:19;;;;;;;5.27;4.77;;;12.00;99.90;;;;;;483094;246;28857;-73
2023/08/29 05:41:20;;;;;;;5.83;5.23;;;12.00;99.90;;;;;;483084;246;28329;-73
2023/08/29 05:43:21;;;;;;;6.03;5.43;;;12.00;99.90;;;;;;483144;246;29343;-75
2023/08/29 05:45:23;;;;;;;5.90;5.40;;;12.10;99.90;;;;;;483150;246;28441;-73
2023/08/29 05:47:24;;;;;;;6.60;6.00;;;12.10;99.90;;;;;;483104;246;28438;-73
2023/08/29 05:49:25;;;;;;;6.50;5.90;;;12.20;99.90;;;;;;483098;246;28407;-74
2023/08/29 05:51:26;;;;;;;6.57;6.03;;;12.20;99.90;;;;;;483092;246;28634;-74
2023/08/29 05:53:28;;;;;;;5.80;5.30;;;12.30;99.90;;;;;;483109;246;28804;-73
2023/08/29 05:55:29;;;;;;;6.20;5.20;;;12.30;99.90;;;;;;483118;246;29231;-74
2023/08/29 05:57:30;;;;;;;6.57;5.97;;;12.30;99.90;;;;;;483134;246;28347;-73
2023/08/29 05:59:31;;;;;;;5.97;5.33;;;12.30;99.90;;;;;;483132;246;28133;-73
2023/08/29 06:01:35;;;;;;;8.70;5.13;;;;;;;;;;483117;246;28222;-77
2023/08/29 06:03:36;;;;;;;8.70;5.37;;;12.40;99.90;;;;;;483091;246;27086;-75
2023/08/29 06:05:36;;;;;;;6.70;5.37;;;12.40;99.90;;;;;;483141;246;28803;-73
2023/08/29 06:07:39;;;;;;;6.17;5.57;;;;;;;;;;483085;246;28331;-73
2023/08/29 06:09:40;;;;;;;6.70;5.33;;;12.40;99.90;;;;;;483115;246;26506;-73
2023/08/29 06:11:41;;;;;;;7.00;6.10;;;12.50;99.90;;;;;;483092;246;28443;-74
2023/08/29 06:13:43;;;;;;;6.67;5.43;;;12.60;99.90;;;;;;483127;246;28364;-73
2023/08/29 06:15:44;;;;;;;7.20;6.13;;;12.70;99.90;;;;;;483108;246;28804;-74
2023/08/29 06:17:45;;;;;;;6.60;5.93;;;12.80;99.90;;;;;;483127;246;28667;-73
2023/08/29 06:19:46;;;;;;;7.03;6.23;;;12.90;99.90;;;;;;483115;246;28798;-73
2023/08/29 06:21:48;;;;;;;6.80;6.20;;;13.00;99.90;;;;;;483112;246;28330;-73
2023/08/29 06:23:49;;;;;;;9.63;6.90;;;13.00;99.90;;;;;;483096;246;28198;-74
2023/08/29 06:25:50;;;;;;;10.33;8.80;;;13.00;99.90;;;;;;483087;246;28206;-76
2023/08/29 06:27:51;;;;;;;9.40;7.57;;;13.10;99.90;;;;;;483086;246;28308;-74
2023/08/29 06:29:53;;;;;;;9.60;6.30;;;13.20;99.90;;;;;;483074;246;28318;-80
2023/08/29 06:31:56;;;;;;;7.20;6.50;;;13.30;99.90;;;;;;483085;246;28399;-72
2023/08/29 06:33:56;;;;;;;6.27;5.77;;;13.40;99.90;;;;;;483071;246;28856;-73
2023/08/29 06:35:57;;;;;;;7.27;6.67;;;13.40;99.90;;;;;;483079;246;28465;-75
2023/08/29 06:37:59;;;;;;;7.57;6.77;;;13.50;99.90;;;;;;483071;246;28987;-75
2023/08/29 06:40:01;;;;;;;7.60;6.43;;;13.60;99.90;;;;;;483091;246;28904;-73
2023/08/29 06:42:02;;;;;;;12.60;7.60;;;13.60;99.90;;;;;;483086;246;28861;-76
2023/08/29 06:44:03;;;;;;;7.10;6.40;;;13.60;99.90;;;;;;483075;246;29359;-75
2023/08/29 06:46:05;;;;;;;7.70;7.00;;;13.70;99.90;;;;;;483052;246;28789;-75
2023/08/29 06:48:06;;;;;;;9.67;7.10;;;13.70;99.90;;;;;;483090;246;28885;-75
2023/08/29 06:50:08;;;;;;;12.30;8.63;;;13.80;99.90;;;;;;483076;246;29418;-74
2023/08/29 06:52:08;;;;;;;12.50;9.43;;;13.80;99.90;;;;;;483068;246;28539;-73
2023/08/29 06:54:10;;;;;;;10.23;8.77;;;13.80;99.90;;;;;;483118;246;28869;-73
2023/08/29 06:56:11;;;;;;;9.20;8.27;;;13.90;99.90;;;;;;483099;246;28631;-73
2023/08/29 06:58:12;;;;;;;12.17;9.70;;;14.00;99.90;;;;;;483078;246;29307;-75
2023/08/29 07:00:13;;;;;;;11.90;10.47;;;14.10;99.90;;;;;;483106;246;29127;-73
2023/08/29 07:02:15;;;;;;;12.07;9.90;;;14.20;99.90;;;;;;483100;246;29313;-74
2023/08/29 07:04:16;;;;;;;13.00;11.60;;;14.20;99.90;;;;;;483099;246;28872;-73
2023/08/29 07:06:17;;;;;;;12.30;11.00;;;14.30;99.90;;;;;;483106;246;28866;-72
2023/08/29 07:08:18;;;;;;;14.13;12.27;;;14.30;99.90;;;;;;483100;246;28921;-73
2023/08/29 07:10:20;;;;;;;13.57;12.27;;;14.30;99.90;;;;;;483075;246;29287;-73
2023/08/29 07:12:21;;;;;;;17.73;12.53;;;14.40;99.90;;;;;;483087;246;29317;-75
2023/08/29 07:14:22;;;;;;;14.67;13.03;;;14.40;99.90;;;;;;483088;246;28857;-75
2023/08/29 07:16:24;;;;;;;19.93;14.80;;;14.40;99.90;;;;;;483088;246;28871;-73
2023/08/29 07:18:25;;;;;;;14.70;12.63;;;14.40;99.90;;;;;;483087;246;29284;-76
2023/08/29 07:20:26;;;;;;;13.37;12.00;;;14.40;99.90;;;;;;483145;246;29370;-76
2023/08/29 07:22:27;;;;;;;14.60;13.03;;;14.50;99.90;;;;;;483094;246;28870;-76
2023/08/29 07:24:29;;;;;;;15.40;13.80;;;14.40;99.90;;;;;;483087;246;28856;-75
2023/08/29 07:26:30;;;;;;;15.13;12.40;;;14.50;99.90;;;;;;483070;246;29663;-74
2023/08/29 07:28:31;;;;;;;17.20;13.67;;;14.50;99.90;;;;;;483095;246;29305;-73
2023/08/29 07:30:32;;;;;;;14.83;13.37;;;14.60;99.90;;;;;;483084;246;28926;-74
2023/08/29 07:32:34;;;;;;;15.13;11.97;;;14.60;99.90;;;;;;483120;246;28860;-73
2023/08/29 07:34:36;;;;;;;11.70;10.50;;;14.60;99.90;;;;;;483101;246;29413;-73
2023/08/29 07:36:36;;;;;;;12.37;11.17;;;14.70;99.90;;;;;;483077;246;30899;-73
2023/08/29 07:38:38;;;;;;;13.43;12.13;;;14.80;99.90;;;;;;483105;246;28827;-75
2023/08/29 07:40:39;;;;;;;13.33;12.03;;;14.80;99.90;;;;;;483084;246;28527;-77
2023/08/29 07:42:40;;;;;;;15.80;11.10;;;14.80;99.90;;;;;;483074;246;29412;-73
2023/08/29 07:44:41;;;;;;;14.43;11.43;;;14.90;99.90;;;;;;483089;246;29333;-75
2023/08/29 07:46:43;;;;;;;13.27;10.60;;;14.90;99.90;;;;;;483092;246;28860;-75
2023/08/29 07:48:44;;;;;;;14.17;11.80;;;15.00;99.90;;;;;;483088;246;28977;-75
2023/08/29 07:50:45;;;;;;;11.50;10.30;;;15.00;99.90;;;;;;483082;246;28866;-75
2023/08/29 07:52:46;;;;;;;11.33;10.20;;;15.00;99.90;;;;;;483105;246;29305;-73
2023/08/29 07:54:48;;;;;;;10.40;9.40;;;15.00;99.90;;;;;;483107;246;29314;-73
2023/08/29 07:56:49;;;;;;;10.70;9.60;;;15.10;99.90;;;;;;483114;246;28875;-73
2023/08/29 07:58:50;;;;;;;11.77;10.20;;;15.00;99.90;;;;;;483108;246;28860;-73
2023/08/29 08:00:51;;;;;;;11.20;10.10;;;15.00;99.90;;;;;;483091;246;29288;-73
2023/08/29 08:02:53;;;;;;;10.10;9.10;;;15.00;99.90;;;;;;483129;246;29315;-73
2023/08/29 08:04:54;;;;;;;11.77;10.17;;;15.00;99.90;;;;;;483124;246;28854;-73
2023/08/29 08:06:55;;;;;;;10.97;9.87;;;15.00;99.90;;;;;;483093;246;28873;-74
2023/08/29 08:08:56;;;;;;;10.50;9.23;;;15.00;99.90;;;;;;483115;246;28941;-75
2023/08/29 08:10:58;;;;;;;12.90;9.43;;;15.00;99.90;;;;;;483124;246;28918;-73
2023/08/29 08:12:59;;;;;;;10.40;9.00;;;15.00;99.90;;;;;;483120;246;28840;-73
2023/08/29 08:15:00;;;;;;;10.10;8.80;;;15.00;99.90;;;;;;483113;246;28900;-76
2023/08/29 08:17:02;;;;;;;10.63;8.83;;;15.10;99.90;;;;;;483096;246;28866;-75
2023/08/29 08:19:04;;;;;;;9.50;8.47;;;15.10;99.90;;;;;;483122;246;29314;-71
2023/08/29 08:21:05;;;;;;;11.63;9.53;;;15.10;99.90;;;;;;483094;246;29329;-73
2023/08/29 08:23:06;;;;;;;10.30;9.20;;;15.20;99.90;;;;;;483108;246;28946;-73
2023/08/29 08:25:07;;;;;;;9.43;8.07;;;15.10;99.90;;;;;;483099;246;28863;-74
2023/08/29 08:27:08;;;;;;;9.47;8.53;;;15.20;99.90;;;;;;483095;246;29390;-76
2023/08/29 08:29:09;;;;;;;10.83;8.00;;;15.30;99.90;;;;;;483096;246;29318;-76
2023/08/29 08:31:10;;;;;;;11.80;10.60;;;15.40;99.90;;;;;;483101;246;29434;-74
2023/08/29 08:33:12;;;;;;;8.77;7.87;;;15.30;99.90;;;;;;483115;246;28979;-75
2023/08/29 08:35:13;;;;;;;10.70;8.70;;;15.40;99.90;;;;;;483107;246;29318;-74
2023/08/29 08:37:15;;;;;;;8.83;7.87;;;15.50;99.90;;;;;;483110;246;29308;-74
2023/08/29 08:39:15;;;;;;;10.20;8.33;;;15.60;99.90;;;;;;483123;246;29322;-74
2023/08/29 08:41:17;;;;;;;8.53;7.73;;;15.70;99.90;;;;;;483103;246;28950;-74
2023/08/29 08:43:18;;;;;;;8.83;7.97;;;15.70;99.90;;;;;;483122;246;28855;-74
2023/08/29 08:45:19;;;;;;;9.70;8.70;;;15.80;99.90;;;;;;483051;246;28847;-75
2023/08/29 08:47:20;;;;;;;7.90;7.10;;;15.90;99.90;;;;;;483099;246;29297;-74
2023/08/29 08:49:22;;;;;;;6.80;6.20;;;16.00;99.90;;;;;;483003;246;29308;-74
2023/08/29 08:51:23;;;;;;;9.37;6.20;;;16.10;99.90;;;;;;483087;246;29390;-75
2023/08/29 08:53:24;;;;;;;10.87;7.67;;;16.20;99.90;;;;;;483102;246;28857;-75
2023/08/29 08:55:27;;;;;;;8.10;6.57;;;16.20;99.90;;;;;;483104;246;29340;-74
2023/08/29 08:57:28;;;;;;;7.20;5.40;;;16.30;99.90;;;;;;483100;246;28857;-75
2023/08/29 08:59:29;;;;;;;6.83;6.23;;;16.40;99.90;;;;;;483093;246;28940;-76
2023/08/29 09:01:30;;;;;;;6.90;6.30;;;16.40;99.90;;;;;;483099;246;29309;-75
2023/08/29 09:03:32;;;;;;;5.90;5.40;;;16.40;99.90;;;;;;483096;246;29304;-76
2023/08/29 09:05:33;;;;;;;6.30;5.70;;;16.40;99.90;;;;;;483095;246;28926;-76
2023/08/29 09:07:34;;;;;;;6.67;6.00;;;16.30;99.90;;;;;;483100;246;28851;-75
2023/08/29 09:09:35;;;;;;;5.50;5.00;;;16.40;99.90;;;;;;483101;246;29333;-74
2023/08/29 09:11:37;;;;;;;8.87;6.00;;;16.40;99.90;;;;;;483113;246;29402;-75
2023/08/29 09:13:38;;;;;;;5.87;5.23;;;16.50;99.90;;;;;;483096;246;29328;-75
2023/08/29 09:15:39;;;;;;;5.70;5.20;;;16.50;99.90;;;;;;483089;246;28871;-76
2023/08/29 09:17:40;;;;;;;7.60;6.33;;;16.50;99.90;;;;;;483098;246;28982;-72
2023/08/29 09:19:42;;;;;;;8.10;7.27;;;16.70;99.90;;;;;;483111;246;29393;-75
2023/08/29 09:21:43;;;;;;;6.60;6.00;;;16.60;99.90;;;;;;483010;246;29321;-72
2023/08/29 09:23:44;;;;;;;6.20;5.27;;;16.60;99.90;;;;;;483111;246;29429;-75
2023/08/29 09:25:46;;;;;;;6.47;5.87;;;16.60;99.90;;;;;;483103;246;28859;-75
2023/08/29 09:27:47;;;;;;;9.53;7.07;;;16.50;99.90;;;;;;483108;246;28952;-74
2023/08/29 09:29:48;;;;;;;7.37;6.60;;;16.50;99.90;;;;;;483088;246;29313;-75
2023/08/29 09:31:49;;;;;;;6.97;6.37;;;16.50;99.90;;;;;;483106;246;29679;-76
2023/08/29 09:33:51;;;;;;;6.80;6.10;;;16.60;99.90;;;;;;483108;246;29308;-71
2023/08/29 09:35:52;;;;;;;6.57;5.33;;;16.60;99.90;;;;;;483111;246;28841;-73
2023/08/29 09:37:53;;;;;;;6.07;5.50;;;16.70;99.90;;;;;;483100;246;28846;-72
2023/08/29 09:39:54;;;;;;;8.40;6.20;;;16.70;99.90;;;;;;483116;246;28860;-73
2023/08/29 09:41:56;;;;;;;7.50;5.90;;;16.80;99.90;;;;;;483105;246;29389;-72
2023/08/29 09:43:57;;;;;;;8.20;6.53;;;16.80;99.90;;;;;;483111;246;29275;-74
2023/08/29 09:45:59;;;;;;;6.40;5.80;;;16.50;99.90;;;;;;482992;246;28863;-75
2023/08/29 09:47:59;;;;;;;6.20;5.60;;;16.60;99.90;;;;;;483095;246;28951;-75
2023/08/29 09:50:01;;;;;;;6.80;5.80;;;16.70;99.90;;;;;;483114;246;29300;-74
2023/08/29 09:52:02;;;;;;;6.77;5.70;;;16.80;99.90;;;;;;483079;246;29323;-76
2023/08/29 09:54:03;;;;;;;6.73;5.33;;;16.90;99.90;;;;;;483096;246;28848;-75
2023/08/29 09:56:11;;;;;;;6.90;5.13;;;17.00;99.90;;;;;;483104;246;28857;-72
2023/08/29 09:58:12;;;;;;;8.33;6.30;;;17.00;99.90;;;;;;483100;246;28872;-72
2023/08/29 10:00:14;;;;;;;6.70;6.10;;;17.00;99.90;;;;;;483110;246;28844;-74
2023/08/29 10:02:17;;;;;;;6.90;5.53;;;17.10;99.90;;;;;;483008;246;29400;-76
2023/08/29 10:04:16;;;;;;;5.07;4.67;;;17.10;99.90;;;;;;482969;246;29317;-75
2023/08/29 10:06:17;;;;;;;4.90;4.50;;;17.40;99.90;;;;;;483099;246;28852;-75
2023/08/29 10:08:18;;;;;;;6.13;4.70;;;17.60;99.90;;;;;;483100;246;28915;-75
2023/08/29 10:10:20;;;;;;;10.00;5.60;;;17.80;99.90;;;;;;483090;246;28849;-75
2023/08/29 10:12:21;;;;;;;4.90;4.30;;;17.90;99.90;;;;;;483088;246;29322;-75
2023/08/29 10:14:22;;;;;;;7.53;4.80;;;18.20;99.90;;;;;;483082;246;28846;-74
2023/08/29 10:16:23;;;;;;;7.20;4.77;;;18.10;99.90;;;;;;483070;246;28883;-76
2023/08/29 10:18:25;;;;;;;6.23;4.77;;;18.30;99.90;;;;;;483090;246;29324;-75
2023/08/29 10:20:26;;;;;;;5.20;3.73;;;18.40;99.90;;;;;;483086;246;29384;-76
2023/08/29 10:22:27;;;;;;;4.37;3.73;;;18.70;99.90;;;;;;483074;246;28854;-75
2023/08/29 10:24:29;;;;;;;5.03;4.03;;;18.80;99.90;;;;;;483077;246;28919;-74
2023/08/29 10:26:30;;;;;;;3.43;3.10;;;18.80;99.90;;;;;;483085;246;29314;-74
2023/08/29 10:28:31;;;;;;;4.33;3.93;;;18.80;99.90;;;;;;483085;246;29415;-77
2023/08/29 10:30:32;;;;;;;5.30;3.30;;;18.90;99.90;;;;;;483091;246;28836;-75